Reddick, Illinois
Current Conditions -  °F | °C
As of 9:55 PM on Saturday 22 Nov 2014 (Local Time) from KIKK Reporting Station
Overcast Overcast  
Wind Chill: 10°   Ceiling: 2600
Heat Index: 10°   Visibility: 10mi
Dew Point:   Wind: 13mph
Humidity: 86%   Direction: 180°S
Pressure: 29.9"   Gusts: NA
Location:  41.1°N, 88.25°W
Report Text: KIKK 230355Z AUTO 18011KT 10SM OVC026 10/08 A2990 RMK AO2 T01020080
Loading
Personal Weather Stations






























Interactive Weather Map New forecast layout! Learn more

10-Day Weather Forecast

Advertisements
Track Severe Weather on mobile